Terminal Aerodrome Forecast
Issued by NWS Buffalo, NY

Home | Current Version | Previous Version | Text Only | Print | Product List | Glossary On
Versions: 1 2 3 4 5 6 7 8 9 10 11 12 13 14 15 16 17 18 19 20 21 22 23 24 25 26
000
FTUS41 KBUF 301700
TAFART
TAF
KART 301739Z 3018/3118 24020G30KT P6SM VCSH OVC045
     FM302000 25017G26KT 6SM -SHRASN OVC035
     FM310000 26012G19KT P6SM VCSH OVC035
     FM310200 27010KT P6SM OVC035
     FM310700 28005KT P6SM BKN035
     FM311000 VRB03KT P6SM BKN035
     FM311500 34005KT P6SM BKN035=

USA.gov is the U.S. government's official web portal to all federal, state and local government web resources and services.